Agadir Al Massira, Morocco
Current Conditions -  °F | °C
As of 7:00 PM on Monday 24 Nov 2014 (Local Time) from GMAD Reporting Station
Few Clouds Few Clouds  
Wind Chill: 18°   Ceiling: Unl
Heat Index: 18°   Visibility: 6mi
Dew Point: 13°   Wind: 10mph
Humidity: 73%   Direction: 260°W
Pressure: 30.03"   Gusts: NA
Location:  30.33°N, 9.4°W
Report Text: GMAD 241800Z 26009KT 9999 FEW020 18/13 Q1017 NOSIG
Loading
Personal Weather Stations






























Interactive Weather Map New forecast layout! Learn more

10-Day Weather Forecast

Advertisements
Track Severe Weather on mobile